createdAt,value
2019-06-27T00:02:50.929Z,20.20
2019-06-27T00:05:54.238Z,20.20
2019-06-27T00:08:57.528Z,20.20
2019-06-27T00:12:00.853Z,20.20
2019-06-27T00:15:04.430Z,20.20
2019-06-27T00:18:07.746Z,20.20
2019-06-27T00:21:10.932Z,20.20
2019-06-27T00:24:14.235Z,20.10
2019-06-27T00:27:17.632Z,20.10
2019-06-27T00:30:20.967Z,19.90
2019-06-27T00:33:24.255Z,19.80
2019-06-27T00:36:27.490Z,19.80
2019-06-27T00:39:30.738Z,19.70
2019-06-27T00:42:34.039Z,19.70
2019-06-27T00:45:37.342Z,19.60
2019-06-27T00:48:40.814Z,19.50
2019-06-27T00:51:45.322Z,19.30
2019-06-27T00:54:48.628Z,19.10
2019-06-27T00:57:51.862Z,19.00
2019-06-27T01:00:55.156Z,18.90
2019-06-27T01:03:58.201Z,18.80
2019-06-27T01:07:01.337Z,18.70
2019-06-27T01:10:05.119Z,18.70
2019-06-27T01:13:08.345Z,18.60
2019-06-27T01:16:11.644Z,18.60
2019-06-27T01:19:15.114Z,18.50
2019-06-27T01:22:18.332Z,18.40
2019-06-27T01:25:21.409Z,18.40
2019-06-27T01:28:24.704Z,18.30
2019-06-27T01:31:28.174Z,18.30
2019-06-27T01:34:31.492Z,18.20
2019-06-27T01:37:34.839Z,18.10
2019-06-27T01:40:38.085Z,18.00
2019-06-27T01:43:41.542Z,18.00
2019-06-27T01:46:46.561Z,17.90
2019-06-27T01:49:49.947Z,17.80
2019-06-27T01:52:53.212Z,17.70
2019-06-27T01:55:56.442Z,17.70
2019-06-27T01:58:59.503Z,17.50
2019-06-27T02:02:02.826Z,17.50
2019-06-27T02:05:06.403Z,17.40
2019-06-27T02:08:09.620Z,17.30
2019-06-27T02:11:12.791Z,17.20
2019-06-27T02:14:15.998Z,17.20
2019-06-27T02:17:19.320Z,17.10
2019-06-27T02:20:22.585Z,17.00
2019-06-27T02:23:25.789Z,16.90
2019-06-27T02:26:29.063Z,16.90
2019-06-27T02:29:32.277Z,16.80
2019-06-27T02:32:35.700Z,16.70
2019-06-27T02:35:39.074Z,16.60
2019-06-27T02:38:42.401Z,16.60
2019-06-27T02:41:45.661Z,16.50
2019-06-27T02:44:48.872Z,16.40
2019-06-27T02:47:52.050Z,16.30
2019-06-27T02:50:55.354Z,16.30
2019-06-27T02:53:58.399Z,16.30
2019-06-27T02:57:01.629Z,16.20
2019-06-27T03:00:05.023Z,16.10
2019-06-27T03:03:08.533Z,16.10
2019-06-27T03:06:11.834Z,16.00
2019-06-27T03:09:15.030Z,16.00
2019-06-27T03:12:18.424Z,16.00
2019-06-27T03:15:21.521Z,16.00
2019-06-27T03:18:24.616Z,15.90
2019-06-27T03:21:29.112Z,15.90
2019-06-27T03:24:34.058Z,15.80
2019-06-27T03:27:38.392Z,15.80
2019-06-27T03:30:41.794Z,15.90
2019-06-27T03:33:44.885Z,16.00
2019-06-27T03:36:48.089Z,16.00
2019-06-27T03:39:51.314Z,16.10
2019-06-27T03:42:55.498Z,16.20
2019-06-27T03:45:58.731Z,16.30
2019-06-27T03:49:02.128Z,16.30
2019-06-27T03:52:05.387Z,16.40
2019-06-27T03:55:08.611Z,16.60
2019-06-27T03:58:11.984Z,16.60
2019-06-27T04:01:15.193Z,16.60
2019-06-27T04:04:18.421Z,16.70
2019-06-27T04:07:21.569Z,16.90
2019-06-27T04:10:24.896Z,17.10
2019-06-27T04:13:28.357Z,17.40
2019-06-27T04:16:31.243Z,17.20
2019-06-27T04:19:34.053Z,17.00
2019-06-27T04:22:36.965Z,16.90
2019-06-27T04:25:39.781Z,16.60
2019-06-27T04:28:42.685Z,16.60
2019-06-27T04:31:45.888Z,16.30
2019-06-27T04:34:49.446Z,16.20
2019-06-27T04:37:53.722Z,16.20
2019-06-27T04:40:56.840Z,16.30
2019-06-27T04:44:00.106Z,16.30
2019-06-27T04:47:03.204Z,16.40
2019-06-27T04:50:06.547Z,16.40
2019-06-27T04:53:09.690Z,16.30
2019-06-27T04:56:12.892Z,16.20
2019-06-27T04:59:15.973Z,16.30
2019-06-27T05:02:19.089Z,16.20
2019-06-27T05:05:23.213Z,16.00
2019-06-27T05:08:26.389Z,16.00
2019-06-27T05:11:29.473Z,16.10
2019-06-27T05:14:32.796Z,16.10
2019-06-27T05:17:35.666Z,16.30
2019-06-27T05:20:38.485Z,16.30
2019-06-27T05:23:41.349Z,16.10
2019-06-27T05:26:44.238Z,16.00
2019-06-27T05:29:47.016Z,15.90
2019-06-27T05:32:50.025Z,16.20
2019-06-27T05:35:52.864Z,16.30
2019-06-27T05:38:55.649Z,16.50
2019-06-27T05:41:58.436Z,16.50
2019-06-27T05:45:01.223Z,16.70
2019-06-27T05:48:04.102Z,16.70
2019-06-27T05:51:07.021Z,16.60
2019-06-27T05:54:09.800Z,16.40
2019-06-27T05:57:12.576Z,16.60
2019-06-27T06:00:27.730Z,16.80
2019-06-27T06:03:20.397Z,16.80
2019-06-27T06:06:23.204Z,16.60
2019-06-27T06:09:26.020Z,16.60
2019-06-27T06:12:28.964Z,16.50
2019-06-27T06:15:32.988Z,16.40
2019-06-27T06:18:35.798Z,16.60
2019-06-27T06:21:38.581Z,16.60
2019-06-27T06:24:41.377Z,16.60
2019-06-27T06:27:44.285Z,16.70
2019-06-27T06:30:47.121Z,16.80
2019-06-27T06:33:49.912Z,17.30
2019-06-27T06:36:52.692Z,17.50
2019-06-27T06:39:55.584Z,17.10
2019-06-27T06:43:00.625Z,17.30
2019-06-27T06:46:03.693Z,17.40
2019-06-27T06:49:06.566Z,17.30
2019-06-27T06:52:09.492Z,17.80
2019-06-27T06:55:12.401Z,18.20
2019-06-27T06:58:15.329Z,18.60
2019-06-27T07:01:18.101Z,18.70
2019-06-27T07:04:21.020Z,18.90
2019-06-27T07:07:23.858Z,18.80
2019-06-27T07:10:26.630Z,19.00
2019-06-27T07:13:29.510Z,19.20
2019-06-27T07:16:32.337Z,19.70
2019-06-27T07:19:35.210Z,19.90
2019-06-27T07:22:38.054Z,19.60
2019-06-27T07:25:41.892Z,19.80
2019-06-27T07:28:44.969Z,20.40
2019-06-27T07:31:47.897Z,20.70
2019-06-27T07:34:50.799Z,21.10
2019-06-27T07:37:54.707Z,20.50
2019-06-27T07:40:57.488Z,20.80
2019-06-27T07:44:00.400Z,21.60
2019-06-27T07:47:03.828Z,21.40
2019-06-27T07:50:07.417Z,22.60
2019-06-27T07:53:10.652Z,22.80
2019-06-27T07:56:13.996Z,23.00
2019-06-27T07:59:16.878Z,22.10
2019-06-27T08:02:19.686Z,22.10
2019-06-27T08:05:22.506Z,21.90
2019-06-27T08:08:25.308Z,22.90
2019-06-27T08:11:28.189Z,22.60
2019-06-27T08:14:31.025Z,22.90
2019-06-27T08:17:33.844Z,23.20
2019-06-27T08:20:36.658Z,22.90
2019-06-27T08:23:41.911Z,22.90
2019-06-27T08:26:44.216Z,22.40
2019-06-27T08:29:47.332Z,22.60
2019-06-27T08:32:50.283Z,23.20
2019-06-27T08:35:53.065Z,24.20
2019-06-27T08:38:55.852Z,24.60
2019-06-27T08:41:58.677Z,24.90
2019-06-27T08:45:01.468Z,23.90
2019-06-27T08:48:04.436Z,24.10
2019-06-27T08:51:07.253Z,24.20
2019-06-27T08:54:10.937Z,24.50
2019-06-27T08:57:14.808Z,24.40
2019-06-27T09:00:18.986Z,23.60
2019-06-27T09:03:21.864Z,24.50
2019-06-27T09:06:24.685Z,24.40
2019-06-27T09:09:27.518Z,25.50
2019-06-27T09:12:30.329Z,25.50
2019-06-27T09:15:33.187Z,25.00
2019-06-27T09:18:36.041Z,25.50
2019-06-27T09:21:38.906Z,25.90
2019-06-27T09:24:41.811Z,27.00
2019-06-27T09:27:44.590Z,28.00
2019-06-27T09:30:47.365Z,28.40
2019-06-27T09:33:51.372Z,28.00
2019-06-27T09:36:54.168Z,28.70
2019-06-27T09:39:57.062Z,29.20
2019-06-27T09:42:59.837Z,28.80
2019-06-27T09:46:02.621Z,29.00
2019-06-27T09:49:05.507Z,28.40
2019-06-27T09:52:08.420Z,27.80
2019-06-27T09:55:11.917Z,28.10
2019-06-27T09:58:14.812Z,28.90
2019-06-27T10:01:17.731Z,29.80
2019-06-27T10:04:20.561Z,28.90
2019-06-27T10:07:23.380Z,30.10
2019-06-27T10:10:26.481Z,29.80
2019-06-27T10:13:31.463Z,26.60
2019-06-27T10:16:34.502Z,27.30
2019-06-27T10:19:37.733Z,27.90
2019-06-27T10:22:41.026Z,29.40
2019-06-27T10:25:45.317Z,30.40
2019-06-27T10:28:48.437Z,30.90
2019-06-27T10:31:51.606Z,31.20
2019-06-27T10:34:54.838Z,30.90
2019-06-27T10:37:57.963Z,31.00
2019-06-27T10:41:01.518Z,31.30
2019-06-27T10:44:04.727Z,30.60
2019-06-27T10:47:07.903Z,30.50
2019-06-27T10:50:11.390Z,28.90
2019-06-27T10:53:14.523Z,30.50
2019-06-27T10:56:17.676Z,31.80
2019-06-27T10:59:20.872Z,32.50
2019-06-27T11:02:24.181Z,30.70
2019-06-27T11:05:27.262Z,31.00
2019-06-27T11:08:30.897Z,30.90
2019-06-27T11:11:34.074Z,31.70
2019-06-27T11:14:37.364Z,32.10
2019-06-27T11:17:42.085Z,31.00
2019-06-27T11:20:45.233Z,30.70
2019-06-27T11:23:48.972Z,30.30
2019-06-27T11:26:52.031Z,31.20
2019-06-27T11:29:55.124Z,31.80
2019-06-27T11:32:58.248Z,32.60
2019-06-27T11:36:03.915Z,31.40
2019-06-27T11:39:07.478Z,32.60
2019-06-27T11:42:10.771Z,33.00
2019-06-27T11:45:16.282Z,33.70
2019-06-27T11:48:19.344Z,32.90
2019-06-27T11:51:22.628Z,31.90
2019-06-27T11:54:25.911Z,33.00
2019-06-27T11:57:30.744Z,32.40
2019-06-27T12:00:35.737Z,32.50
2019-06-27T12:03:49.378Z,34.10
2019-06-27T12:06:45.858Z,31.40
2019-06-27T12:09:49.177Z,31.70
2019-06-27T12:12:52.574Z,31.80
2019-06-27T12:15:58.041Z,33.10
2019-06-27T12:19:04.478Z,32.70
2019-06-27T12:22:10.363Z,31.90
2019-06-27T12:25:16.374Z,33.20
2019-06-27T12:28:19.648Z,32.40
2019-06-27T12:31:22.890Z,32.90
2019-06-27T12:34:26.094Z,32.00
2019-06-27T12:37:31.119Z,32.00
2019-06-27T12:40:34.255Z,33.70
2019-06-27T12:43:37.471Z,33.50
2019-06-27T12:46:40.745Z,34.40
2019-06-27T12:50:00.618Z,33.70
2019-06-27T12:52:49.840Z,33.00
2019-06-27T12:55:53.291Z,33.60
2019-06-27T12:58:56.492Z,34.90
2019-06-27T13:01:59.758Z,35.10
2019-06-27T13:05:02.985Z,34.20
2019-06-27T13:08:06.768Z,33.60
2019-06-27T13:11:09.908Z,33.40
2019-06-27T13:14:12.971Z,33.70
2019-06-27T13:17:16.050Z,34.90
2019-06-27T13:20:20.813Z,35.30
2019-06-27T13:23:25.654Z,35.80
2019-06-27T13:26:29.002Z,36.30
2019-06-27T13:29:32.122Z,37.10
2019-06-27T13:32:35.291Z,36.40
2019-06-27T13:35:38.520Z,36.00
2019-06-27T13:38:41.714Z,35.40
2019-06-27T13:41:45.099Z,35.60
2019-06-27T13:44:48.451Z,35.40
2019-06-27T13:47:51.776Z,34.30
2019-06-27T13:50:57.686Z,34.10
2019-06-27T13:54:00.010Z,36.10
2019-06-27T13:57:03.316Z,36.90
2019-06-27T14:00:06.967Z,36.80
2019-06-27T14:03:10.383Z,34.80
2019-06-27T14:06:13.510Z,34.20
2019-06-27T14:09:22.907Z,34.80
2019-06-27T14:12:21.614Z,35.50
2019-06-27T14:15:26.555Z,35.10
2019-06-27T14:18:31.347Z,35.60
2019-06-27T14:21:35.939Z,35.20
2019-06-27T14:24:39.161Z,36.40
2019-06-27T14:27:44.019Z,34.50
2019-06-27T14:30:47.195Z,34.80
2019-06-27T14:33:50.469Z,34.80
2019-06-27T14:36:54.518Z,35.10
2019-06-27T14:39:57.706Z,35.90
2019-06-27T14:43:01.027Z,37.00
2019-06-27T14:46:04.065Z,37.70
2019-06-27T14:49:07.151Z,38.40
2019-06-27T14:52:10.452Z,37.90
2019-06-27T14:55:14.850Z,38.00
2019-06-27T14:58:18.100Z,38.10
2019-06-27T15:01:21.168Z,37.80
2019-06-27T15:04:24.502Z,37.40
2019-06-27T15:07:27.718Z,37.40
2019-06-27T15:10:31.799Z,37.80
2019-06-27T15:13:34.875Z,39.00
2019-06-27T15:16:37.958Z,38.30
2019-06-27T15:19:41.251Z,38.00
2019-06-27T15:22:44.346Z,37.70
2019-06-27T15:25:47.553Z,36.30
2019-06-27T15:28:52.791Z,35.70
2019-06-27T15:31:55.976Z,34.60
2019-06-27T15:34:59.071Z,34.80
2019-06-27T15:38:02.026Z,33.90
2019-06-27T15:41:05.162Z,35.20
2019-06-27T15:44:08.256Z,35.60
2019-06-27T15:47:11.543Z,35.60
2019-06-27T15:50:14.827Z,35.30
2019-06-27T15:53:17.938Z,35.10
2019-06-27T15:56:21.172Z,34.20
2019-06-27T15:59:24.223Z,32.80
2019-06-27T16:02:27.925Z,32.10
2019-06-27T16:05:31.366Z,32.90
2019-06-27T16:08:34.747Z,33.00
2019-06-27T16:11:38.135Z,32.70
2019-06-27T16:14:41.328Z,33.00
2019-06-27T16:17:44.817Z,33.30
2019-06-27T16:20:48.028Z,33.30
2019-06-27T16:23:51.219Z,33.20
2019-06-27T16:26:54.462Z,34.00
2019-06-27T16:29:57.611Z,33.30
2019-06-27T16:33:00.715Z,33.90
2019-06-27T16:36:03.831Z,33.60
2019-06-27T16:39:07.111Z,32.40
2019-06-27T16:42:10.219Z,30.80
2019-06-27T16:45:13.381Z,30.50
2019-06-27T16:48:17.495Z,31.60
2019-06-27T16:51:20.802Z,32.40
2019-06-27T16:54:24.095Z,32.20
2019-06-27T16:57:27.451Z,30.60
2019-06-27T17:00:30.580Z,30.70
2019-06-27T17:03:35.359Z,30.20
2019-06-27T17:06:42.561Z,29.50
2019-06-27T17:09:43.866Z,29.60
2019-06-27T17:12:47.054Z,29.70
2019-06-27T17:15:53.496Z,29.70
2019-06-27T17:18:58.349Z,30.00
2019-06-27T17:22:03.234Z,29.60
2019-06-27T17:25:08.375Z,29.50
2019-06-27T17:28:11.879Z,28.70
2019-06-27T17:31:15.403Z,28.10
2019-06-27T17:34:18.190Z,28.20
2019-06-27T17:37:24.880Z,28.60
2019-06-27T17:40:30.739Z,28.60
2019-06-27T17:43:34.746Z,27.90
2019-06-27T17:46:38.347Z,27.10
2019-06-27T17:49:41.890Z,26.60
2019-06-27T17:52:45.096Z,26.20
2019-06-27T17:55:48.312Z,25.70
2019-06-27T17:58:51.652Z,25.50
2019-06-27T18:01:54.947Z,24.90
2019-06-27T18:04:58.027Z,24.60
2019-06-27T18:08:01.201Z,24.30
2019-06-27T18:11:04.311Z,24.20
2019-06-27T18:14:07.582Z,24.00
2019-06-27T18:17:10.707Z,24.00
2019-06-27T18:20:13.975Z,23.60
2019-06-27T18:23:17.075Z,23.20
2019-06-27T18:26:20.395Z,23.20
2019-06-27T18:29:23.537Z,23.10
2019-06-27T18:32:26.680Z,23.00
2019-06-27T18:35:29.554Z,22.90
2019-06-27T18:38:32.746Z,22.80
2019-06-27T18:41:37.597Z,22.80
2019-06-27T18:44:40.983Z,22.70
2019-06-27T18:47:43.883Z,22.50
2019-06-27T18:50:48.393Z,22.40
2019-06-27T18:53:53.291Z,22.30
2019-06-27T18:56:56.458Z,22.20
2019-06-27T19:00:01.498Z,22.10
2019-06-27T19:03:06.595Z,22.00
2019-06-27T19:06:09.800Z,21.80
2019-06-27T19:09:12.783Z,21.70
2019-06-27T19:12:19.093Z,21.60
2019-06-27T19:15:20.911Z,21.60
2019-06-27T19:18:41.803Z,21.40
2019-06-27T19:22:01.000Z,21.30
2019-06-27T19:25:10.086Z,21.20
2019-06-27T19:28:15.738Z,21.00
2019-06-27T19:31:19.533Z,20.90
2019-06-27T19:34:23.284Z,20.80
2019-06-27T19:37:38.759Z,20.70
2019-06-27T19:40:42.295Z,20.50
2019-06-27T19:43:46.185Z,20.50
2019-06-27T19:46:50.101Z,20.30
2019-06-27T19:49:54.629Z,20.20
2019-06-27T19:52:58.510Z,20.10
2019-06-27T19:56:03.986Z,19.90
2019-06-27T19:59:07.629Z,19.80
2019-06-27T20:02:11.440Z,19.80
2019-06-27T20:05:14.807Z,19.70
2019-06-27T20:08:20.111Z,19.60
2019-06-27T20:11:24.223Z,19.50
2019-06-27T20:14:28.573Z,19.40
2019-06-27T20:17:32.845Z,19.30
2019-06-27T20:20:36.750Z,19.30
2019-06-27T20:23:40.140Z,19.20
2019-06-27T20:26:44.140Z,19.00
2019-06-27T20:29:48.130Z,19.00
2019-06-27T20:32:51.726Z,18.80
2019-06-27T20:36:17.529Z,18.70
2019-06-27T20:39:21.488Z,18.60
2019-06-27T20:42:25.825Z,18.60
2019-06-27T20:45:29.910Z,18.50
2019-06-27T20:48:34.165Z,18.40
2019-06-27T20:51:39.475Z,18.30
2019-06-27T20:54:45.823Z,18.20
2019-06-27T20:57:49.643Z,18.10
2019-06-27T21:00:53.444Z,18.10
2019-06-27T21:03:57.552Z,18.00
2019-06-27T21:07:02.291Z,17.90
2019-06-27T21:10:08.474Z,17.80
2019-06-27T21:13:12.246Z,17.70
2019-06-27T21:16:15.885Z,17.70
2019-06-27T21:19:20.318Z,17.50
2019-06-27T21:22:24.411Z,17.50
2019-06-27T21:25:28.599Z,17.50
2019-06-27T21:28:32.462Z,17.40
2019-06-27T21:31:35.584Z,17.40
2019-06-27T21:34:39.028Z,17.30
2019-06-27T21:37:42.203Z,17.20
2019-06-27T21:40:46.156Z,17.10
2019-06-27T21:43:51.047Z,17.00
2019-06-27T21:46:54.111Z,17.00
2019-06-27T21:49:57.207Z,16.80
2019-06-27T21:53:00.535Z,16.80
2019-06-27T21:56:05.341Z,16.70
2019-06-27T21:59:08.564Z,16.60
2019-06-27T22:02:11.835Z,16.50
2019-06-27T22:05:15.327Z,16.50
2019-06-27T22:08:18.554Z,16.40
2019-06-27T22:11:21.739Z,16.30
2019-06-27T22:14:26.618Z,16.30
2019-06-27T22:17:30.679Z,16.20
2019-06-27T22:20:33.994Z,16.20
2019-06-27T22:23:39.272Z,16.10
2019-06-27T22:26:42.932Z,16.00
2019-06-27T22:29:46.230Z,16.00
2019-06-27T22:32:49.410Z,15.90
2019-06-27T22:35:52.706Z,15.80
2019-06-27T22:39:14.252Z,15.70
2019-06-27T22:42:35.658Z,15.70
2019-06-27T22:45:58.003Z,15.60
2019-06-27T22:49:00.735Z,15.50
2019-06-27T22:52:32.931Z,15.50
2019-06-27T22:55:37.485Z,15.40
2019-06-27T22:58:40.610Z,15.20
2019-06-27T23:01:43.925Z,15.10
2019-06-27T23:04:46.971Z,14.90
2019-06-27T23:07:50.181Z,14.80
2019-06-27T23:10:54.284Z,14.70
2019-06-27T23:13:57.270Z,14.70
2019-06-27T23:17:02.106Z,14.60
2019-06-27T23:20:05.571Z,14.50
2019-06-27T23:23:08.287Z,14.60
2019-06-27T23:26:12.801Z,14.50
2019-06-27T23:29:15.620Z,14.30
2019-06-27T23:32:18.402Z,14.20
2019-06-27T23:35:21.119Z,14.10
2019-06-27T23:39:37.504Z,14.00
2019-06-27T23:42:42.983Z,13.90
2019-06-27T23:45:46.038Z,13.90
2019-06-27T23:48:48.810Z,13.90
2019-06-27T23:51:52.669Z,13.80
2019-06-27T23:54:55.362Z,13.70
2019-06-27T23:57:58.115Z,13.70
